Time;durP1;ratioP1;P1;durP2;ratioP2;P2;SDS_P1;SDS_P2;PMS_P1;PMS_P2;Temp;Humidity;BMP_temperature;BMP_pressure;BME280_temperature;BME280_humidity;BME280_pressure;Samples;Min_cycle;Max_cycle;Signal;HPM_P1;HPM_P2
2023/06/26 00:00:07;;;;;;;6.55;5.28;;;25.50;42.30;;;;;;4904040;29;20059;-54
2023/06/26 00:02:35;;;;;;;9.00;5.30;;;25.50;42.40;;;;;;4898324;29;20048;-51
2023/06/26 00:05:03;;;;;;;7.78;5.03;;;25.50;42.40;;;;;;4902743;29;20047;-50
2023/06/26 00:07:30;;;;;;;8.73;5.00;;;25.40;42.40;;;;;;4897042;29;20056;-52
2023/06/26 00:09:58;;;;;;;6.60;5.32;;;25.40;42.40;;;;;;4903289;29;20052;-56
2023/06/26 00:12:25;;;;;;;9.45;5.05;;;25.40;42.30;;;;;;4900389;29;20489;-52
2023/06/26 00:14:54;;;;;;;6.50;4.95;;;25.30;42.30;;;;;;4899527;29;20541;-55
2023/06/26 00:17:21;;;;;;;6.57;5.43;;;25.30;42.20;;;;;;4902815;29;20056;-51
2023/06/26 00:19:48;;;;;;;6.03;4.93;;;25.30;42.40;;;;;;4903213;29;20059;-52
2023/06/26 00:22:16;;;;;;;7.18;5.13;;;25.30;42.60;;;;;;4900921;29;20516;-51
2023/06/26 00:24:44;;;;;;;6.18;5.07;;;25.20;42.70;;;;;;4898906;29;20067;-57
2023/06/26 00:27:11;;;;;;;6.47;5.00;;;25.20;42.80;;;;;;4903253;29;20052;-50
2023/06/26 00:29:39;;;;;;;7.55;5.88;;;25.20;43.00;;;;;;4902131;29;20056;-54
2023/06/26 00:32:08;;;;;;;7.13;5.53;;;25.20;43.10;;;;;;4901916;29;20044;-48
2023/06/26 00:34:36;;;;;;;6.60;5.28;;;25.20;43.00;;;;;;4900167;29;20052;-49
2023/06/26 00:37:03;;;;;;;7.25;5.30;;;25.10;43.10;;;;;;4902502;29;20071;-49
2023/06/26 00:39:31;;;;;;;8.60;5.30;;;25.10;43.00;;;;;;4902015;29;20547;-50
2023/06/26 00:41:58;;;;;;;6.45;5.28;;;25.10;43.00;;;;;;4900582;29;20060;-49
2023/06/26 00:44:25;;;;;;;6.47;5.45;;;25.00;43.00;;;;;;4899671;29;20504;-50
2023/06/26 00:46:52;;;;;;;6.47;5.25;;;25.00;43.10;;;;;;4902715;29;20067;-49
2023/06/26 00:49:21;;;;;;;6.45;4.82;;;25.00;43.20;;;;;;4902332;29;20527;-51
2023/06/26 00:51:49;;;;;;;6.90;5.20;;;25.00;43.30;;;;;;4901487;29;20048;-56
2023/06/26 00:54:19;;;;;;;7.00;5.13;;;24.90;43.30;;;;;;4903818;29;20497;-56
2023/06/26 00:56:48;;;;;;;5.70;5.00;;;24.90;43.40;;;;;;4902799;29;20076;-57
2023/06/26 00:59:15;;;;;;;8.23;5.28;;;24.80;43.40;;;;;;4899866;29;20059;-54
2023/06/26 01:01:43;;;;;;;6.95;4.90;;;24.80;43.40;;;;;;4902917;29;20064;-56
2023/06/26 01:04:17;;;;;;;7.22;5.38;;;24.80;43.40;;;;;;4924897;23;20055;-89
2023/06/26 01:06:49;;;;;;;;;;;24.80;43.40;;;;;;4911537;29;20055;-89
2023/06/26 01:09:18;;;;;;;5.80;4.80;;;24.80;43.30;;;;;;4914909;29;19930;-89
2023/06/26 01:11:46;;;;;;;6.88;5.35;;;24.70;43.30;;;;;;4917144;29;20059;-89
2023/06/26 01:14:14;;;;;;;6.55;5.07;;;24.80;43.40;;;;;;4911881;29;20060;-89
2023/06/26 01:16:47;;;;;;;6.60;5.35;;;24.70;43.40;;;;;;4919351;29;20058;-88
2023/06/26 01:19:24;;;;;;;7.68;5.45;;;24.70;43.40;;;;;;4924209;29;20058;-89
2023/06/26 01:21:59;;;;;;;7.32;5.72;;;24.60;43.40;;;;;;4917267;29;20056;-88
2023/06/26 01:24:33;;;;;;;6.68;5.03;;;24.70;43.50;;;;;;4917248;29;20056;-88
2023/06/26 01:27:03;;;;;;;7.60;5.13;;;24.60;43.50;;;;;;4919956;29;20063;-88
2023/06/26 01:29:32;;;;;;;6.95;5.00;;;24.60;43.60;;;;;;4917952;29;20055;-89
2023/06/26 01:32:01;;;;;;;7.65;4.75;;;24.60;43.50;;;;;;4919001;29;20066;-88
2023/06/26 01:34:30;;;;;;;6.32;4.50;;;24.50;43.60;;;;;;4918278;29;20062;-88
2023/06/26 01:36:57;;;;;;;5.82;4.57;;;24.50;43.70;;;;;;4911961;29;20526;-88
2023/06/26 01:39:26;;;;;;;7.32;5.38;;;24.50;43.70;;;;;;4917780;29;20058;-88
2023/06/26 01:41:53;;;;;;;6.28;4.93;;;24.50;43.70;;;;;;4914243;29;20412;-88
2023/06/26 01:44:29;;;;;;;5.75;4.68;;;24.50;43.70;;;;;;4919787;29;20056;-88
2023/06/26 01:47:01;;;;;;;6.95;5.13;;;24.50;43.70;;;;;;4917565;29;20065;-88
2023/06/26 01:49:38;;;;;;;7.35;4.57;;;24.40;43.70;;;;;;4917653;29;20052;-89
2023/06/26 01:52:14;;;;;;;7.65;4.93;;;24.40;43.70;;;;;;4915570;29;20412;-89
2023/06/26 01:54:53;;;;;;;5.78;4.75;;;24.40;43.70;;;;;;4918829;29;20056;-89
2023/06/26 01:57:23;;;;;;;5.97;5.00;;;24.40;43.70;;;;;;4916376;29;20059;-89
2023/06/26 01:59:53;;;;;;;6.78;5.43;;;24.30;43.70;;;;;;4916840;29;21079;-88
2023/06/26 02:02:20;;;;;;;6.43;4.93;;;24.40;43.70;;;;;;4913319;29;20048;-88
2023/06/26 02:04:50;;;;;;;5.75;4.90;;;24.40;43.60;;;;;;4915780;29;20059;-88
2023/06/26 02:07:17;;;;;;;7.78;5.22;;;24.30;43.60;;;;;;4914045;29;20055;-89
2023/06/26 02:09:45;;;;;;;6.60;5.22;;;24.30;43.70;;;;;;4914602;29;20066;-88
2023/06/26 02:12:21;;;;;;;7.45;5.60;;;24.30;43.70;;;;;;4910669;29;20059;-86
2023/06/26 02:14:56;;;;;;;6.10;5.22;;;24.30;43.70;;;;;;4914665;29;20060;-87
2023/06/26 02:17:27;;;;;;;7.32;5.22;;;24.20;43.70;;;;;;4909021;29;20389;-87
2023/06/26 02:19:55;;;;;;;7.10;5.20;;;24.20;43.60;;;;;;4906556;29;20052;-87
2023/06/26 02:22:23;;;;;;;7.15;5.40;;;24.20;43.70;;;;;;4909513;29;20055;-87
2023/06/26 02:24:51;;;;;;;6.13;4.80;;;24.20;43.80;;;;;;4911317;29;20063;-86
2023/06/26 02:27:19;;;;;;;6.35;5.35;;;24.20;43.80;;;;;;4907519;29;20861;-88
2023/06/26 02:30:01;;;;;;;6.93;5.10;;;24.20;44.40;;;;;;4909407;29;20122;-87
2023/06/26 02:32:36;;;;;;;6.72;5.18;;;24.20;44.00;;;;;;4917969;29;20504;-86
2023/06/26 02:35:04;;;;;;;6.80;4.97;;;24.20;44.00;;;;;;4916673;29;20056;-86
2023/06/26 02:37:31;;;;;;;6.57;5.45;;;24.10;43.90;;;;;;4914348;29;20052;-87
2023/06/26 02:39:59;;;;;;;7.60;5.55;;;24.10;43.90;;;;;;4917920;29;20145;-85
2023/06/26 02:42:29;;;;;;;8.23;5.40;;;24.10;43.90;;;;;;4919343;29;20444;-85
2023/06/26 02:44:57;;;;;;;6.88;4.80;;;24.10;43.90;;;;;;4923224;29;20519;-85
2023/06/26 02:47:25;;;;;;;6.95;5.32;;;24.00;43.90;;;;;;4923884;29;20052;-87
2023/06/26 02:49:52;;;;;;;7.00;5.43;;;24.00;43.90;;;;;;4921447;29;20424;-88
2023/06/26 02:52:19;;;;;;;6.10;4.97;;;24.00;44.00;;;;;;4914205;29;20051;-87
2023/06/26 02:54:47;;;;;;;7.28;5.60;;;24.00;44.10;;;;;;4923936;29;20056;-87
2023/06/26 02:57:14;;;;;;;7.00;5.47;;;24.00;44.10;;;;;;4917500;29;20055;-87
2023/06/26 02:59:41;;;;;;;7.05;5.25;;;24.00;44.20;;;;;;4914633;29;20053;-86
2023/06/26 03:02:10;;;;;;;8.48;5.43;;;24.00;44.20;;;;;;4914092;29;20063;-88
2023/06/26 03:04:42;;;;;;;7.53;5.13;;;23.90;44.30;;;;;;4917268;29;20055;-85
2023/06/26 03:07:12;;;;;;;7.55;5.30;;;23.90;44.10;;;;;;4918017;29;20063;-85
2023/06/26 03:09:39;;;;;;;6.57;5.35;;;23.90;44.00;;;;;;4918184;29;20052;-87
2023/06/26 03:12:08;;;;;;;6.60;4.97;;;23.90;44.10;;;;;;4915732;29;20055;-85
2023/06/26 03:14:35;;;;;;;9.07;5.22;;;23.90;44.10;;;;;;4916564;29;20404;-86
2023/06/26 03:17:03;;;;;;;6.93;5.55;;;23.90;44.10;;;;;;4918984;29;20534;-87
2023/06/26 03:19:32;;;;;;;8.57;5.68;;;23.80;44.00;;;;;;4916103;29;20079;-89
2023/06/26 03:21:59;;;;;;;6.85;4.95;;;23.80;44.00;;;;;;4918309;29;20067;-94
2023/06/26 03:24:27;;;;;;;6.82;5.43;;;23.80;44.00;;;;;;4921816;29;20063;-93
2023/06/26 03:26:54;;;;;;;6.53;4.78;;;23.80;43.90;;;;;;4924217;29;20063;-93
2023/06/26 03:29:22;;;;;;;7.95;5.40;;;23.80;44.00;;;;;;4921638;29;20056;-91
2023/06/26 03:31:49;;;;;;;6.65;4.95;;;23.80;43.90;;;;;;4920081;23;20067;-95
2023/06/26 03:34:34;;;;;;;8.18;5.53;;;23.80;43.70;;;;;;4912160;29;20063;-94
2023/06/26 03:39:37;;;;;;;8.18;5.75;;;23.80;43.10;;;;;;4938597;29;20391;-58
2023/06/26 03:42:05;;;;;;;7.90;6.00;;;23.70;43.30;;;;;;4928832;29;21015;-58
2023/06/26 03:44:33;;;;;;;8.30;5.55;;;23.70;43.30;;;;;;4934627;29;20519;-58
2023/06/26 03:47:00;;;;;;;8.93;6.68;;;23.70;43.40;;;;;;4936976;29;20059;-58
2023/06/26 03:49:27;;;;;;;27.60;16.85;;;23.70;44.30;;;;;;4940317;29;20074;-58
2023/06/26 03:51:54;;;;;;;12.00;8.27;;;23.60;44.30;;;;;;4939324;29;20066;-58
2023/06/26 03:54:21;;;;;;;10.82;6.30;;;23.50;44.40;;;;;;4933766;29;20055;-58
2023/06/26 03:56:50;;;;;;;6.85;5.75;;;23.40;44.50;;;;;;4933271;29;20059;-58
2023/06/26 03:59:17;;;;;;;8.82;5.32;;;23.40;44.60;;;;;;4938883;29;20082;-58
2023/06/26 04:01:44;;;;;;;6.60;4.78;;;23.20;44.70;;;;;;4932860;29;20066;-58
2023/06/26 04:04:11;;;;;;;8.57;5.30;;;23.30;44.90;;;;;;4920187;29;20063;-58
2023/06/26 04:06:39;;;;;;;7.72;4.82;;;23.20;45.00;;;;;;4918468;29;20503;-58
2023/06/26 04:09:06;;;;;;;8.27;6.53;;;23.20;45.00;;;;;;4917937;29;20066;-59
2023/06/26 04:11:33;;;;;;;7.90;5.70;;;23.20;44.70;;;;;;4912509;29;20060;-58
2023/06/26 04:14:02;;;;;;;9.30;6.25;;;23.30;44.70;;;;;;4918803;29;20051;-58
2023/06/26 04:16:30;;;;;;;8.73;6.00;;;23.20;44.90;;;;;;4914769;29;20821;-58
2023/06/26 04:18:57;;;;;;;8.15;6.93;;;23.20;45.30;;;;;;4911328;29;20063;-58
2023/06/26 04:21:25;;;;;;;7.47;5.93;;;23.20;45.50;;;;;;4919059;29;20519;-58
2023/06/26 04:23:52;;;;;;;8.00;6.13;;;23.10;45.60;;;;;;4918067;29;20554;-59
2023/06/26 04:26:19;;;;;;;7.65;5.60;;;23.10;45.70;;;;;;4919255;29;20505;-58
2023/06/26 04:28:47;;;;;;;7.95;6.05;;;23.10;45.80;;;;;;4914835;29;20062;-58
2023/06/26 04:31:15;;;;;;;8.32;6.03;;;23.00;45.80;;;;;;4916524;29;20524;-57
2023/06/26 04:33:42;;;;;;;8.52;5.90;;;23.10;46.00;;;;;;4908513;29;20051;-57
2023/06/26 04:36:11;;;;;;;8.30;6.35;;;23.10;46.30;;;;;;4919055;29;20059;-59
2023/06/26 04:38:38;;;;;;;8.45;5.63;;;23.10;46.70;;;;;;4912169;29;20523;-58
2023/06/26 04:41:05;;;;;;;7.30;5.47;;;23.10;46.90;;;;;;4916018;29;20059;-58
2023/06/26 04:43:32;;;;;;;9.38;5.68;;;23.10;47.00;;;;;;4911624;29;20611;-57
2023/06/26 04:46:00;;;;;;;7.07;5.35;;;23.20;47.10;;;;;;4920874;29;20086;-58
2023/06/26 04:48:29;;;;;;;8.38;5.85;;;23.30;47.40;;;;;;4925838;29;20060;-58
2023/06/26 04:50:56;;;;;;;7.57;5.30;;;23.30;47.60;;;;;;4921383;29;20052;-57
2023/06/26 04:53:24;;;;;;;8.20;5.70;;;23.30;47.70;;;;;;4920465;29;20524;-57
2023/06/26 04:55:51;;;;;;;8.32;6.20;;;23.40;47.90;;;;;;4920212;29;20518;-57
2023/06/26 04:58:19;;;;;;;9.85;5.50;;;23.40;47.90;;;;;;4918616;29;20064;-57
2023/06/26 05:00:49;;;;;;;9.15;6.07;;;23.50;48.00;;;;;;4918161;29;20506;-59
2023/06/26 05:03:20;;;;;;;7.93;6.15;;;23.50;48.30;;;;;;4919157;29;20052;-57
2023/06/26 05:05:49;;;;;;;11.30;5.95;;;23.60;48.40;;;;;;4921827;29;20059;-57
2023/06/26 05:08:17;;;;;;;7.70;5.35;;;23.60;48.50;;;;;;4921220;29;20060;-58
2023/06/26 05:10:45;;;;;;;7.57;5.72;;;23.60;48.60;;;;;;4924207;29;20531;-58
2023/06/26 05:13:14;;;;;;;9.63;6.55;;;23.70;48.70;;;;;;4919373;29;20055;-58
2023/06/26 05:15:42;;;;;;;10.13;6.07;;;23.70;48.60;;;;;;4922338;29;20066;-56
2023/06/26 05:18:10;;;;;;;8.30;6.32;;;23.70;48.60;;;;;;4922465;29;20067;-54
2023/06/26 05:20:37;;;;;;;11.52;6.22;;;23.80;48.90;;;;;;4919177;29;20311;-57
2023/06/26 05:23:07;;;;;;;10.00;5.78;;;23.80;48.90;;;;;;4912959;29;20051;-58
2023/06/26 05:25:34;;;;;;;8.32;6.05;;;23.80;49.10;;;;;;4922633;29;20052;-57
2023/06/26 05:28:04;;;;;;;8.93;6.20;;;23.90;49.00;;;;;;4920749;29;20059;-60
2023/06/26 05:30:35;;;;;;;8.00;6.53;;;23.90;49.00;;;;;;4920153;29;20055;-61
2023/06/26 05:33:03;;;;;;;9.18;6.25;;;24.00;49.00;;;;;;4920647;29;20051;-57
2023/06/26 05:35:31;;;;;;;12.13;6.03;;;24.00;49.00;;;;;;4921858;29;20055;-57
2023/06/26 05:37:59;;;;;;;10.52;6.13;;;24.00;49.00;;;;;;4915742;29;20064;-57
2023/06/26 05:40:28;;;;;;;9.32;5.70;;;24.00;49.00;;;;;;4919077;29;20063;-58
2023/06/26 05:42:56;;;;;;;9.73;6.70;;;24.10;49.10;;;;;;4916787;29;20070;-57
2023/06/26 05:45:23;;;;;;;10.75;7.13;;;24.10;49.20;;;;;;4922711;29;20055;-62
2023/06/26 05:47:51;;;;;;;8.48;6.07;;;24.10;49.20;;;;;;4921699;29;20063;-63
2023/06/26 05:50:19;;;;;;;9.63;6.07;;;24.10;49.30;;;;;;4919373;29;20051;-58
2023/06/26 05:52:47;;;;;;;9.18;6.30;;;24.10;49.20;;;;;;4921218;29;20056;-57
2023/06/26 05:55:15;;;;;;;9.57;6.22;;;24.10;49.10;;;;;;4916695;29;20047;-57
2023/06/26 05:57:46;;;;;;;9.77;6.38;;;24.10;49.10;;;;;;4916734;29;20424;-60
2023/06/26 06:00:14;;;;;;;10.38;6.70;;;24.20;49.10;;;;;;4915188;29;20051;-59
2023/06/26 06:02:42;;;;;;;6.95;5.60;;;24.20;49.20;;;;;;4916905;29;20059;-59
2023/06/26 06:05:10;;;;;;;11.05;6.35;;;24.20;49.30;;;;;;4920686;29;20054;-59
2023/06/26 06:07:37;;;;;;;7.93;5.93;;;24.20;49.20;;;;;;4914906;29;20408;-56
2023/06/26 06:10:05;;;;;;;9.27;5.80;;;24.20;49.10;;;;;;4919896;29;20051;-58
2023/06/26 06:12:33;;;;;;;9.88;6.47;;;24.20;49.10;;;;;;4918137;29;20063;-56
2023/06/26 06:15:01;;;;;;;7.28;5.53;;;24.20;49.00;;;;;;4915206;29;20059;-58
2023/06/26 06:17:29;;;;;;;8.05;5.68;;;24.20;49.00;;;;;;4911572;29;20047;-57
2023/06/26 06:19:56;;;;;;;9.40;5.70;;;24.20;49.10;;;;;;4913978;29;20397;-58
2023/06/26 06:22:23;;;;;;;12.90;6.22;;;24.20;49.10;;;;;;4917772;29;20051;-58
2023/06/26 06:24:51;;;;;;;7.25;5.47;;;24.20;49.30;;;;;;4919808;29;20055;-53
2023/06/26 06:27:18;;;;;;;8.60;5.38;;;24.20;48.90;;;;;;4914704;29;20063;-56
2023/06/26 06:29:46;;;;;;;9.35;4.90;;;24.20;49.20;;;;;;4922504;29;20067;-49
2023/06/26 06:32:14;;;;;;;8.35;5.32;;;24.20;48.40;;;;;;4915471;29;20061;-57
2023/06/26 06:34:41;;;;;;;8.80;5.47;;;24.20;48.10;;;;;;4916322;29;20500;-58
2023/06/26 06:37:09;;;;;;;11.27;5.43;;;24.20;48.20;;;;;;4912751;29;20061;-57
2023/06/26 06:39:36;;;;;;;11.45;5.53;;;24.30;48.50;;;;;;4878291;29;1163180;-57
2023/06/26 06:42:03;;;;;;;7.78;4.93;;;24.20;48.40;;;;;;4918989;29;20515;-59
2023/06/26 06:44:31;;;;;;;12.88;5.82;;;24.30;48.40;;;;;;4921158;29;20532;-62
2023/06/26 06:46:58;;;;;;;14.55;5.32;;;24.30;48.50;;;;;;4914752;29;20423;-62
2023/06/26 06:49:27;;;;;;;8.18;4.93;;;24.30;48.50;;;;;;4915738;29;20059;-53
2023/06/26 06:51:54;;;;;;;9.38;4.93;;;24.40;48.80;;;;;;4916081;29;20063;-58
2023/06/26 06:54:21;;;;;;;8.57;4.85;;;24.40;48.40;;;;;;4920545;29;20487;-54
2023/06/26 06:56:48;;;;;;;8.07;5.22;;;24.40;48.10;;;;;;4917010;29;20067;-58
2023/06/26 06:59:15;;;;;;;9.82;4.80;;;24.40;47.90;;;;;;4917823;29;20123;-55
2023/06/26 07:01:43;;;;;;;7.32;4.65;;;24.40;48.10;;;;;;4913773;29;20048;-58
2023/06/26 07:04:10;;;;;;;10.68;4.80;;;24.40;48.00;;;;;;4914316;29;20052;-57
2023/06/26 07:06:38;;;;;;;8.95;4.82;;;24.40;48.40;;;;;;4916924;29;20051;-58
2023/06/26 07:09:06;;;;;;;9.02;4.78;;;24.40;48.90;;;;;;4915571;29;20059;-56
2023/06/26 07:11:33;;;;;;;9.50;4.40;;;24.50;48.70;;;;;;4918978;29;20059;-60
2023/06/26 07:14:01;;;;;;;12.20;5.43;;;24.50;48.80;;;;;;4913938;29;20058;-58
2023/06/26 07:16:28;;;;;;;8.73;5.07;;;24.60;48.80;;;;;;4921469;29;20047;-61
2023/06/26 07:18:55;;;;;;;9.68;5.38;;;24.60;48.90;;;;;;4917519;29;20059;-64
2023/06/26 07:21:22;;;;;;;10.57;5.25;;;24.70;49.10;;;;;;4916007;29;20066;-60
2023/06/26 07:23:51;;;;;;;7.55;4.60;;;24.70;48.50;;;;;;4922150;29;20065;-57
2023/06/26 07:26:18;;;;;;;9.30;4.70;;;24.70;48.60;;;;;;4918331;29;20484;-59
2023/06/26 07:28:45;;;;;;;10.38;5.10;;;24.70;48.40;;;;;;4911002;29;20052;-61
2023/06/26 07:31:12;;;;;;;11.15;5.60;;;24.80;48.30;;;;;;4912729;29;20064;-61
2023/06/26 07:33:40;;;;;;;9.88;5.53;;;24.80;48.30;;;;;;4916845;29;20063;-65
2023/06/26 07:36:07;;;;;;;14.55;5.43;;;24.80;48.30;;;;;;4912816;29;20519;-64
2023/06/26 07:38:34;;;;;;;8.52;5.05;;;24.70;48.80;;;;;;4913702;29;20507;-60
2023/06/26 07:41:03;;;;;;;10.13;4.82;;;24.70;48.70;;;;;;4916050;29;20070;-64
2023/06/26 07:43:30;;;;;;;16.45;5.80;;;24.70;49.10;;;;;;4914745;29;20090;-57
2023/06/26 07:45:58;;;;;;;10.90;4.57;;;24.70;49.10;;;;;;4916182;29;20056;-69
2023/06/26 07:48:26;;;;;;;12.93;4.97;;;24.60;49.20;;;;;;4914051;29;20055;-60
2023/06/26 07:50:53;;;;;;;8.77;4.53;;;24.60;49.10;;;;;;4911800;29;20059;-54
2023/06/26 07:53:21;;;;;;;11.77;5.07;;;24.60;49.10;;;;;;4913651;29;20062;-55
2023/06/26 07:55:48;;;;;;;9.70;5.30;;;24.60;49.30;;;;;;4918974;29;20068;-57
2023/06/26 07:58:16;;;;;;;10.88;5.40;;;24.60;49.00;;;;;;4911261;29;20416;-63
2023/06/26 08:00:43;;;;;;;20.58;5.78;;;24.60;48.90;;;;;;4915211;29;20059;-64
2023/06/26 08:03:11;;;;;;;12.07;5.25;;;24.60;49.10;;;;;;4909450;29;20063;-57
2023/06/26 08:05:38;;;;;;;10.30;4.57;;;24.60;49.30;;;;;;4918477;29;20396;-58
2023/06/26 08:08:06;;;;;;;16.77;5.25;;;24.50;49.30;;;;;;4917974;29;20052;-64
2023/06/26 08:10:34;;;;;;;10.90;5.28;;;24.50;49.50;;;;;;4915164;29;20063;-67
2023/06/26 08:13:01;;;;;;;13.25;5.03;;;24.50;49.50;;;;;;4921899;29;20055;-59
2023/06/26 08:15:29;;;;;;;8.85;4.78;;;24.40;49.40;;;;;;4922374;29;20062;-64
2023/06/26 08:17:57;;;;;;;12.85;4.82;;;24.40;49.80;;;;;;4919672;29;20060;-57
2023/06/26 08:20:24;;;;;;;12.73;4.88;;;24.40;50.30;;;;;;4918100;29;20050;-57
2023/06/26 08:22:52;;;;;;;8.48;4.30;;;24.40;50.20;;;;;;4921588;29;20487;-56
2023/06/26 08:25:20;;;;;;;10.55;4.38;;;24.40;50.50;;;;;;4924211;29;20062;-56
2023/06/26 08:27:47;;;;;;;11.68;4.90;;;24.40;50.30;;;;;;4918917;29;20051;-52
2023/06/26 08:30:15;;;;;;;16.85;5.20;;;24.50;50.60;;;;;;4922483;29;20067;-65
2023/06/26 08:32:43;;;;;;;13.80;5.68;;;24.50;50.30;;;;;;4919614;29;20622;-57
2023/06/26 08:35:11;;;;;;;14.02;5.40;;;24.50;50.40;;;;;;4923237;29;20051;-57
2023/06/26 08:37:38;;;;;;;11.55;4.97;;;24.50;50.30;;;;;;4917484;29;20067;-60
2023/06/26 08:40:07;;;;;;;10.45;4.30;;;24.60;50.10;;;;;;4920673;29;20415;-56
2023/06/26 08:42:35;;;;;;;10.30;4.53;;;24.70;49.90;;;;;;4917391;29;20055;-57
2023/06/26 08:45:03;;;;;;;13.20;5.47;;;24.70;49.60;;;;;;4919074;29;20059;-64
2023/06/26 08:47:33;;;;;;;12.57;5.32;;;24.70;49.50;;;;;;4919559;29;20056;-57
2023/06/26 08:50:09;;;;;;;11.48;4.80;;;24.80;49.30;;;;;;4919151;29;20667;-57
2023/06/26 08:52:38;;;;;;;10.75;4.82;;;24.80;49.30;;;;;;4923452;29;20052;-59
2023/06/26 08:55:10;;;;;;;13.63;5.35;;;24.80;49.40;;;;;;4922240;29;20059;-59
2023/06/26 08:57:37;;;;;;;13.38;5.75;;;24.80;49.40;;;;;;4922603;29;20419;-59
2023/06/26 09:00:08;;;;;;;11.73;4.50;;;24.90;49.60;;;;;;4917783;29;20063;-57
2023/06/26 09:02:36;;;;;;;11.82;5.50;;;24.90;49.70;;;;;;4919811;29;20067;-58
2023/06/26 09:05:05;;;;;;;9.90;4.43;;;24.90;49.40;;;;;;4917902;29;20055;-53
2023/06/26 09:07:32;;;;;;;13.13;5.35;;;24.90;50.10;;;;;;4923877;29;20055;-63
2023/06/26 09:10:00;;;;;;;10.80;4.82;;;24.90;48.70;;;;;;4920573;29;20055;-56
2023/06/26 09:12:28;;;;;;;20.02;5.35;;;24.90;49.00;;;;;;4917658;29;20047;-66
2023/06/26 09:14:56;;;;;;;15.20;5.03;;;25.00;48.70;;;;;;4921449;29;20055;-56
2023/06/26 09:17:26;;;;;;;8.30;5.05;;;25.00;48.50;;;;;;4919897;29;20060;-60
2023/06/26 09:19:53;;;;;;;10.68;4.72;;;25.00;48.80;;;;;;4921119;29;20059;-55
2023/06/26 09:22:22;;;;;;;10.77;4.88;;;25.00;48.80;;;;;;4919869;29;20547;-60
2023/06/26 09:24:50;;;;;;;12.77;4.95;;;25.00;48.70;;;;;;4920359;29;20060;-63
2023/06/26 09:27:18;;;;;;;11.75;4.05;;;25.00;48.90;;;;;;4916754;29;20084;-56
2023/06/26 09:29:46;;;;;;;12.45;4.20;;;25.00;48.50;;;;;;4923718;29;20062;-59
2023/06/26 09:32:14;;;;;;;10.05;4.30;;;25.00;48.30;;;;;;4923422;29;20052;-55
2023/06/26 09:34:44;;;;;;;11.30;4.28;;;25.00;48.50;;;;;;4922800;29;20067;-53
2023/06/26 09:37:13;;;;;;;10.65;4.03;;;25.00;48.30;;;;;;4923442;29;20063;-58
2023/06/26 09:39:41;;;;;;;9.07;3.78;;;25.10;47.90;;;;;;4922150;29;20047;-59
2023/06/26 09:42:09;;;;;;;10.45;4.07;;;25.10;48.00;;;;;;4925850;29;20063;-66
2023/06/26 09:44:37;;;;;;;8.25;3.72;;;25.10;47.60;;;;;;4922331;29;20132;-60
2023/06/26 09:47:04;;;;;;;7.78;3.45;;;25.10;47.00;;;;;;4925725;29;20047;-56
2023/06/26 09:49:32;;;;;;;13.50;3.67;;;25.20;46.80;;;;;;4924616;29;20074;-57
2023/06/26 09:52:02;;;;;;;8.13;3.75;;;25.20;47.20;;;;;;4919049;29;20397;-58
2023/06/26 09:54:30;;;;;;;14.70;4.20;;;25.20;47.20;;;;;;4926347;29;20051;-57
2023/06/26 09:57:08;;;;;;;7.22;3.28;;;25.20;47.20;;;;;;4922528;29;20056;-59
2023/06/26 09:59:36;;;;;;;9.20;3.55;;;25.30;47.50;;;;;;4924787;29;20059;-56
2023/06/26 10:02:03;;;;;;;10.52;4.35;;;25.30;47.10;;;;;;4922229;29;20347;-57
2023/06/26 10:04:31;;;;;;;11.90;4.22;;;25.30;47.10;;;;;;4921620;29;20060;-54
2023/06/26 10:07:01;;;;;;;14.35;4.45;;;25.40;47.10;;;;;;4925941;29;20059;-58
2023/06/26 10:09:31;;;;;;;9.75;4.20;;;25.40;47.20;;;;;;4923836;29;20052;-57
2023/06/26 10:12:04;;;;;;;12.60;3.95;;;25.40;47.00;;;;;;4925876;29;20070;-53
2023/06/26 10:14:35;;;;;;;7.88;3.65;;;25.40;47.30;;;;;;4918801;29;20059;-60
2023/06/26 10:17:07;;;;;;;6.97;3.33;;;25.40;46.90;;;;;;4923603;29;20059;-57
2023/06/26 10:19:36;;;;;;;10.27;3.38;;;25.40;46.50;;;;;;4925752;29;20150;-57
2023/06/26 10:22:04;;;;;;;7.50;3.03;;;25.40;46.20;;;;;;4922148;29;20059;-56
2023/06/26 10:24:36;;;;;;;9.25;3.05;;;25.40;46.10;;;;;;4924242;29;20419;-59
2023/06/26 10:27:11;;;;;;;9.30;3.05;;;25.40;45.60;;;;;;4922474;29;20055;-64
2023/06/26 10:29:38;;;;;;;8.75;2.83;;;25.40;44.10;;;;;;4925479;29;20412;-57
2023/06/26 10:32:08;;;;;;;9.68;3.00;;;25.40;44.20;;;;;;4922319;29;20072;-55
2023/06/26 10:34:36;;;;;;;9.00;2.78;;;25.40;44.40;;;;;;4925656;29;20071;-56
2023/06/26 10:37:04;;;;;;;8.00;2.60;;;25.40;44.40;;;;;;4919374;29;20056;-56
2023/06/26 10:39:49;;;;;;;11.38;3.55;;;25.40;44.50;;;;;;4925196;29;20055;-57
2023/06/26 10:42:18;;;;;;;;;;;25.50;44.40;;;;;;4912804;29;20054;-55
2023/06/26 10:44:47;;;;;;;8.43;2.97;;;25.60;44.60;;;;;;4923362;29;19923;-57
2023/06/26 10:47:30;;;;;;;9.88;3.22;;;25.50;44.60;;;;;;4916585;29;20416;-59
2023/06/26 10:49:58;;;;;;;12.05;3.40;;;25.60;43.50;;;;;;4924176;29;20056;-61
2023/06/26 10:52:27;;;;;;;10.45;3.25;;;25.50;42.90;;;;;;4921885;29;20496;-55
2023/06/26 10:54:56;;;;;;;9.40;3.10;;;25.50;43.30;;;;;;4925065;29;20079;-57
2023/06/26 10:57:26;;;;;;;8.00;2.72;;;25.50;43.20;;;;;;4917870;29;20048;-59
2023/06/26 11:00:09;;;;;;;7.40;3.05;;;25.50;43.60;;;;;;4923243;29;21008;-55
2023/06/26 11:02:49;;;;;;;10.20;2.85;;;25.50;43.20;;;;;;4920529;29;20060;-65
2023/06/26 11:05:25;;;;;;;9.93;2.60;;;25.50;42.70;;;;;;4920855;29;20062;-59
2023/06/26 11:08:04;;;;;;;6.05;2.33;;;25.60;42.20;;;;;;4921915;29;20060;-58
2023/06/26 11:10:49;;;;;;;12.07;2.60;;;25.60;42.20;;;;;;4925902;29;20543;-57
2023/06/26 11:13:20;;;;;;;6.45;2.22;;;25.60;42.60;;;;;;4920369;29;20444;-64
2023/06/26 11:15:49;;;;;;;9.80;2.38;;;25.60;42.20;;;;;;4919845;29;20056;-59
2023/06/26 11:18:16;;;;;;;12.02;3.17;;;25.60;41.90;;;;;;4918478;29;20051;-53
2023/06/26 11:20:43;;;;;;;5.47;2.13;;;25.60;42.20;;;;;;4921114;29;20064;-55
2023/06/26 11:23:11;;;;;;;8.13;2.33;;;25.60;41.70;;;;;;4922614;29;20059;-51
2023/06/26 11:25:39;;;;;;;8.82;2.90;;;25.60;41.20;;;;;;4923343;29;20496;-59
2023/06/26 11:28:06;;;;;;;9.52;2.75;;;25.60;40.80;;;;;;4919053;29;20066;-57
2023/06/26 11:30:35;;;;;;;13.07;2.88;;;25.60;41.00;;;;;;4918473;29;20068;-52
2023/06/26 11:33:06;;;;;;;7.80;2.67;;;25.60;41.40;;;;;;4924327;29;20074;-56
2023/06/26 11:35:33;;;;;;;8.40;2.28;;;25.60;41.20;;;;;;4917252;29;20070;-61
2023/06/26 11:38:04;;;;;;;7.03;2.42;;;25.60;40.60;;;;;;5160062;23;20059;-58
2023/06/26 11:40:33;;;;;;;8.48;2.50;;;25.70;41.50;;;;;;4922330;29;20059;-54
2023/06/26 11:43:03;;;;;;;6.78;2.35;;;25.70;41.30;;;;;;4923481;29;20534;-56
2023/06/26 11:45:31;;;;;;;9.95;2.60;;;25.70;41.50;;;;;;4925202;29;20522;-56
2023/06/26 11:48:01;;;;;;;8.20;2.88;;;25.70;41.10;;;;;;4924778;29;20059;-60
2023/06/26 11:50:28;;;;;;;7.50;2.30;;;25.70;40.70;;;;;;4923834;29;20570;-64
2023/06/26 11:52:56;;;;;;;5.47;1.92;;;25.70;38.90;;;;;;4924770;29;20055;-57
2023/06/26 11:55:24;;;;;;;10.57;2.70;;;25.70;39.50;;;;;;4923727;29;20586;-57
2023/06/26 11:57:51;;;;;;;5.40;2.00;;;25.70;39.10;;;;;;4924492;29;20526;-54
2023/06/26 12:00:19;;;;;;;6.20;1.90;;;25.80;39.60;;;;;;4921738;29;20136;-66
2023/06/26 12:02:47;;;;;;;9.40;2.28;;;25.80;40.10;;;;;;4923932;29;20056;-59
2023/06/26 12:05:16;;;;;;;5.68;2.33;;;25.80;39.30;;;;;;4922845;29;20408;-57
2023/06/26 12:07:45;;;;;;;5.22;2.10;;;25.80;39.40;;;;;;4923694;29;20051;-56
2023/06/26 12:10:14;;;;;;;7.60;1.90;;;25.80;38.70;;;;;;4924357;29;20062;-56
2023/06/26 12:12:42;;;;;;;7.03;2.00;;;25.80;38.60;;;;;;4922579;29;20064;-58
2023/06/26 12:15:14;;;;;;;6.32;1.83;;;25.80;38.40;;;;;;4923694;29;20526;-59
2023/06/26 12:17:42;;;;;;;7.75;2.05;;;25.90;38.50;;;;;;4922975;29;20645;-60
2023/06/26 12:20:21;;;;;;;10.43;2.20;;;25.90;38.60;;;;;;4923825;29;20078;-70
2023/06/26 12:22:48;;;;;;;8.25;1.98;;;25.90;38.30;;;;;;4923415;29;20063;-58
2023/06/26 12:25:16;;;;;;;6.35;2.28;;;25.90;38.10;;;;;;4922522;29;20071;-59
2023/06/26 12:27:46;;;;;;;5.45;2.17;;;26.00;38.20;;;;;;4921436;29;20078;-67
2023/06/26 12:30:14;;;;;;;5.55;1.92;;;25.90;38.60;;;;;;4923823;29;20055;-57
2023/06/26 12:32:41;;;;;;;5.88;2.25;;;26.00;38.50;;;;;;4923517;29;20060;-60
2023/06/26 12:35:10;;;;;;;15.73;2.42;;;26.00;39.20;;;;;;4923177;29;20060;-65
2023/06/26 12:37:42;;;;;;;8.68;2.42;;;26.10;38.40;;;;;;4918760;29;20060;-68
2023/06/26 12:40:18;;;;;;;9.43;2.05;;;26.10;38.10;;;;;;4902843;29;20056;-62
2023/06/26 12:42:46;;;;;;;7.43;2.25;;;26.10;36.90;;;;;;4902810;29;20072;-64
2023/06/26 12:45:15;;;;;;;6.20;2.15;;;26.00;37.00;;;;;;4902368;29;20048;-56
2023/06/26 12:47:42;;;;;;;6.82;2.20;;;26.00;37.30;;;;;;4905267;29;20408;-66
2023/06/26 12:50:10;;;;;;;7.60;2.17;;;26.00;37.50;;;;;;4904551;29;20068;-58
2023/06/26 12:52:38;;;;;;;5.05;2.08;;;26.00;37.40;;;;;;4902991;29;20056;-60
2023/06/26 12:55:07;;;;;;;5.15;1.77;;;26.00;37.80;;;;;;4902081;29;20063;-58